Time;durP1;ratioP1;P1;durP2;ratioP2;P2;SDS_P1;SDS_P2;PMS_P1;PMS_P2;Temp;Humidity;BMP_temperature;BMP_pressure;BME280_temperature;BME280_humidity;BME280_pressure;Samples;Min_cycle;Max_cycle;Signal;HPM_P1;HPM_P2
2022/07/22 00:02:20;;;;;;;19.13;2.97;;;17.90;99.90;;;;;;5094605;28;20016;-73
2022/07/22 00:04:46;;;;;;;13.45;3.45;;;17.70;99.90;;;;;;5094937;28;20027;-73
2022/07/22 00:07:12;;;;;;;14.13;3.03;;;17.70;99.90;;;;;;5076705;28;20061;-72
2022/07/22 00:09:38;;;;;;;19.50;4.57;;;17.60;99.90;;;;;;5094310;28;20142;-73
2022/07/22 00:12:04;;;;;;;12.55;4.28;;;17.40;99.90;;;;;;5094808;28;20095;-73
2022/07/22 00:14:30;;;;;;;13.13;3.05;;;17.30;99.90;;;;;;5094525;28;20036;-73
2022/07/22 00:16:56;;;;;;;10.98;3.00;;;17.20;99.90;;;;;;5094496;28;20077;-73
2022/07/22 00:19:24;;;;;;;13.65;3.50;;;17.30;99.90;;;;;;5094529;28;20020;-73
2022/07/22 00:21:51;;;;;;;14.40;3.15;;;17.50;99.90;;;;;;5094558;28;20022;-72
2022/07/22 00:24:17;;;;;;;14.07;3.50;;;17.60;99.90;;;;;;5094094;28;20114;-73
2022/07/22 00:26:43;;;;;;;18.42;3.40;;;17.50;99.90;;;;;;5094397;28;20085;-73
2022/07/22 00:29:09;;;;;;;15.65;2.85;;;17.50;99.90;;;;;;5076593;28;20020;-73
2022/07/22 00:31:35;;;;;;;16.90;3.20;;;17.50;99.90;;;;;;5076342;28;20119;-72
2022/07/22 00:34:01;;;;;;;11.43;2.80;;;17.40;99.90;;;;;;5093940;28;20043;-72
2022/07/22 00:36:27;;;;;;;9.88;2.30;;;17.30;99.90;;;;;;5076156;28;20517;-66
2022/07/22 00:38:53;;;;;;;16.90;3.13;;;17.10;99.90;;;;;;5093844;28;20072;-73
2022/07/22 00:41:19;;;;;;;10.35;2.90;;;17.30;99.90;;;;;;5093998;28;20040;-72
2022/07/22 00:43:53;;;;;;;13.77;4.07;;;17.40;99.90;;;;;;5094029;28;20031;-73
2022/07/22 00:46:19;;;;;;;18.35;3.63;;;17.30;99.90;;;;;;5076121;28;20540;-70
2022/07/22 00:48:45;;;;;;;11.95;3.60;;;17.30;99.90;;;;;;5075595;28;20111;-73
2022/07/22 00:51:11;;;;;;;14.90;3.55;;;17.30;99.90;;;;;;5075993;28;20022;-72
2022/07/22 00:53:37;;;;;;;14.70;3.38;;;17.30;99.90;;;;;;5074581;28;20392;-72
2022/07/22 00:56:03;;;;;;;12.18;3.60;;;17.10;99.90;;;;;;5093785;28;20471;-72
2022/07/22 00:58:29;;;;;;;17.40;3.60;;;17.20;99.90;;;;;;5093651;28;20464;-72
2022/07/22 01:00:55;;;;;;;11.60;3.20;;;17.30;99.90;;;;;;5093815;28;20027;-72
2022/07/22 01:03:21;;;;;;;14.73;3.63;;;17.20;99.90;;;;;;5093659;28;20153;-72
2022/07/22 01:05:46;;;;;;;14.52;3.80;;;17.20;99.90;;;;;;5093572;28;20040;-73
2022/07/22 01:08:13;;;;;;;12.73;3.47;;;17.10;99.90;;;;;;5093384;28;20107;-72
2022/07/22 01:10:39;;;;;;;21.98;3.90;;;16.80;99.90;;;;;;5075417;28;20020;-63
2022/07/22 01:13:06;;;;;;;16.02;3.45;;;16.50;99.90;;;;;;5075438;28;20036;-73
2022/07/22 01:15:33;;;;;;;15.85;3.88;;;16.80;99.90;;;;;;5093709;28;20460;-73
2022/07/22 01:17:59;;;;;;;14.80;4.05;;;17.00;99.90;;;;;;5075045;28;20031;-73
2022/07/22 01:20:25;;;;;;;14.93;3.90;;;17.00;99.90;;;;;;5067528;28;20020;-70
2022/07/22 01:22:52;;;;;;;16.85;3.55;;;17.00;99.90;;;;;;5073854;28;20031;-72
2022/07/22 01:25:18;;;;;;;12.93;3.50;;;16.90;99.90;;;;;;5075068;28;20428;-72
2022/07/22 01:27:44;;;;;;;27.42;3.72;;;17.00;99.90;;;;;;5075071;28;20054;-73
2022/07/22 01:30:10;;;;;;;14.77;4.05;;;17.20;99.90;;;;;;5075141;28;20035;-71
2022/07/22 01:32:36;;;;;;;12.93;2.72;;;17.30;99.90;;;;;;5075000;28;20115;-73
2022/07/22 01:35:04;;;;;;;19.27;4.22;;;17.30;99.90;;;;;;5075019;28;20445;-73
2022/07/22 01:37:33;;;;;;;23.35;3.53;;;17.30;99.90;;;;;;5074695;28;20024;-72
2022/07/22 01:40:00;;;;;;;14.40;2.97;;;17.30;99.90;;;;;;5074957;28;20032;-72
2022/07/22 01:42:26;;;;;;;15.73;2.90;;;17.40;99.90;;;;;;5093121;28;20024;-73
2022/07/22 01:44:52;;;;;;;10.77;3.05;;;17.40;99.90;;;;;;5074994;28;20027;-71
2022/07/22 01:47:18;;;;;;;23.13;3.85;;;17.30;99.90;;;;;;5074971;28;20031;-73
2022/07/22 01:49:44;;;;;;;11.23;3.50;;;17.30;99.90;;;;;;5092892;28;20093;-69
2022/07/22 01:52:10;;;;;;;17.63;3.60;;;17.30;99.90;;;;;;5074856;28;20069;-70
2022/07/22 01:54:37;;;;;;;20.00;3.53;;;17.20;99.90;;;;;;5074414;28;20043;-72
2022/07/22 01:57:04;;;;;;;12.15;4.25;;;17.10;99.90;;;;;;5075162;28;20035;-74
2022/07/22 01:59:30;;;;;;;11.90;4.45;;;17.10;99.90;;;;;;5079286;28;20049;-73
2022/07/22 02:01:57;;;;;;;21.17;5.00;;;17.00;99.90;;;;;;5075017;28;20020;-63
2022/07/22 02:04:24;;;;;;;12.90;4.72;;;16.90;99.90;;;;;;5093976;28;20024;-73
2022/07/22 02:06:50;;;;;;;11.13;4.47;;;17.00;99.90;;;;;;5078669;28;20032;-68
2022/07/22 02:09:16;;;;;;;12.30;5.32;;;17.00;99.90;;;;;;5078830;28;20028;-73
2022/07/22 02:11:45;;;;;;;16.95;5.65;;;16.90;99.90;;;;;;5062532;28;20020;-69
2022/07/22 02:14:13;;;;;;;14.07;6.65;;;16.80;99.90;;;;;;5078726;28;20039;-73
2022/07/22 02:16:41;;;;;;;14.35;6.38;;;16.90;99.90;;;;;;5078708;28;20024;-72
2022/07/22 02:19:10;;;;;;;24.60;8.27;;;16.60;99.90;;;;;;5078581;28;20062;-63
2022/07/22 02:21:37;;;;;;;28.52;12.32;;;16.60;99.90;;;;;;5096721;28;20059;-72
2022/07/22 02:24:03;;;;;;;26.05;11.63;;;16.40;99.90;;;;;;5078842;28;20024;-73
2022/07/22 02:26:29;;;;;;;20.38;8.10;;;16.30;99.90;;;;;;5078604;28;20383;-73
2022/07/22 02:28:55;;;;;;;15.50;7.38;;;16.40;99.90;;;;;;5096543;28;20023;-73
2022/07/22 02:31:22;;;;;;;22.00;8.32;;;16.40;99.90;;;;;;5096844;28;20046;-73
2022/07/22 02:33:47;;;;;;;17.27;5.70;;;16.40;99.90;;;;;;5096388;28;20119;-71
2022/07/22 02:36:13;;;;;;;13.65;5.28;;;16.00;99.90;;;;;;5078039;28;20063;-73
2022/07/22 02:38:40;;;;;;;19.42;5.75;;;15.70;99.90;;;;;;5078577;28;20039;-72
2022/07/22 02:41:06;;;;;;;13.05;5.40;;;15.70;99.90;;;;;;5078030;28;20020;-73
2022/07/22 02:43:33;;;;;;;18.13;5.93;;;15.60;99.90;;;;;;5078377;28;20024;-73
2022/07/22 02:45:59;;;;;;;16.77;5.53;;;15.70;99.90;;;;;;5078036;28;20081;-73
2022/07/22 02:48:26;;;;;;;25.25;6.00;;;15.90;99.90;;;;;;5078287;28;20033;-73
2022/07/22 02:50:52;;;;;;;11.68;5.28;;;16.10;99.90;;;;;;5096000;28;20020;-73
2022/07/22 02:53:22;;;;;;;13.63;5.85;;;16.30;99.90;;;;;;5077921;28;20438;-72
2022/07/22 02:55:49;;;;;;;14.93;5.82;;;15.90;99.90;;;;;;5077858;28;20024;-72
2022/07/22 02:58:15;;;;;;;15.10;5.88;;;15.60;99.90;;;;;;5078264;28;20047;-73
2022/07/22 03:00:43;;;;;;;19.52;6.78;;;15.50;99.90;;;;;;5077939;28;20023;-72
2022/07/22 03:03:09;;;;;;;22.40;6.18;;;15.20;99.90;;;;;;5095528;28;20024;-72
2022/07/22 03:05:35;;;;;;;15.63;6.10;;;15.10;99.90;;;;;;5077987;28;20035;-63
2022/07/22 03:08:16;;;;;;;15.20;5.80;;;15.00;99.90;;;;;;5077787;28;20027;-73
2022/07/22 03:10:41;;;;;;;14.88;6.15;;;14.90;99.90;;;;;;5077768;28;20028;-72
2022/07/22 03:13:07;;;;;;;15.10;5.97;;;15.10;99.90;;;;;;5077641;28;20027;-73
2022/07/22 03:15:33;;;;;;;13.88;6.15;;;15.40;99.90;;;;;;5092833;28;20495;-72
2022/07/22 03:18:00;;;;;;;17.40;7.18;;;15.40;99.90;;;;;;5072612;28;20016;-72
2022/07/22 03:20:26;;;;;;;10.10;5.03;;;15.30;99.90;;;;;;5077718;28;20395;-73
2022/07/22 03:22:52;;;;;;;18.33;5.72;;;15.50;99.90;;;;;;5077490;28;20119;-73
2022/07/22 03:25:18;;;;;;;18.55;5.88;;;15.40;99.90;;;;;;5077439;28;20028;-73
2022/07/22 03:27:45;;;;;;;16.38;5.97;;;15.10;99.90;;;;;;5077369;28;20032;-72
2022/07/22 03:30:12;;;;;;;17.80;7.15;;;15.30;99.90;;;;;;5077508;28;20035;-73
2022/07/22 03:32:44;;;;;;;14.50;5.90;;;15.40;99.90;;;;;;5077019;28;20056;-72
2022/07/22 03:35:11;;;;;;;20.98;6.95;;;15.50;99.90;;;;;;5095650;28;20042;-71
2022/07/22 03:37:41;;;;;;;17.88;6.22;;;15.40;99.90;;;;;;5077122;28;20044;-73
2022/07/22 03:40:08;;;;;;;18.50;5.95;;;15.10;99.90;;;;;;5077234;28;20043;-73
2022/07/22 03:42:34;;;;;;;14.18;6.05;;;15.10;99.90;;;;;;5076985;28;20024;-69
2022/07/22 03:44:59;;;;;;;18.17;6.28;;;15.20;99.90;;;;;;5095391;28;20050;-69
2022/07/22 03:47:25;;;;;;;15.30;6.43;;;15.50;99.90;;;;;;5076709;28;20024;-73
2022/07/22 03:49:52;;;;;;;15.05;6.07;;;15.40;99.90;;;;;;5095430;28;20077;-73
2022/07/22 03:52:25;;;;;;;15.32;5.72;;;15.50;99.90;;;;;;5076630;28;20501;-72
2022/07/22 03:54:51;;;;;;;20.52;5.88;;;15.60;99.90;;;;;;5094594;28;20380;-67
2022/07/22 03:57:17;;;;;;;12.35;5.93;;;15.60;99.90;;;;;;5076523;28;20050;-71
2022/07/22 03:59:44;;;;;;;14.85;6.90;;;15.70;99.90;;;;;;5076995;28;20028;-72
2022/07/22 04:02:10;;;;;;;18.42;6.72;;;15.90;99.90;;;;;;5076341;28;20511;-67
2022/07/22 04:04:36;;;;;;;15.15;6.40;;;15.80;99.90;;;;;;5070549;28;20021;-72
2022/07/22 04:07:02;;;;;;;17.98;5.90;;;15.70;99.90;;;;;;5054965;28;20020;-68
2022/07/22 04:09:33;;;;;;;;;;;15.30;99.90;;;;;;5077249;28;20032;-63
2022/07/22 04:11:59;;;;;;;13.48;6.18;;;15.50;99.90;;;;;;5094907;28;19918;-63
2022/07/22 04:14:26;;;;;;;11.15;6.32;;;15.80;99.90;;;;;;5076769;28;20043;-63
2022/07/22 04:16:55;;;;;;;12.88;6.28;;;15.80;99.90;;;;;;5076236;28;20499;-64
2022/07/22 04:19:21;;;;;;;14.93;5.88;;;15.90;99.90;;;;;;5076524;28;20369;-63
2022/07/22 04:21:52;;;;;;;13.30;5.90;;;15.80;99.90;;;;;;5076443;28;20024;-65
2022/07/22 04:24:20;;;;;;;14.65;5.57;;;15.90;99.90;;;;;;5094790;28;20028;-72
2022/07/22 04:26:46;;;;;;;16.00;6.25;;;16.10;99.90;;;;;;5075432;28;20027;-70
2022/07/22 04:29:12;;;;;;;14.15;6.30;;;16.10;99.90;;;;;;5076170;28;20024;-63
2022/07/22 04:31:39;;;;;;;15.95;6.90;;;16.20;99.90;;;;;;5076871;28;20030;-64
2022/07/22 04:34:11;;;;;;;16.23;6.07;;;16.20;99.90;;;;;;5076081;28;20054;-65
2022/07/22 04:36:37;;;;;;;14.73;6.85;;;16.30;99.90;;;;;;5076556;28;20460;-64
2022/07/22 04:39:04;;;;;;;13.75;6.60;;;16.30;99.90;;;;;;5075588;28;20433;-70
2022/07/22 04:41:29;;;;;;;21.30;6.50;;;16.10;99.90;;;;;;5076120;28;20031;-68
2022/07/22 04:43:55;;;;;;;17.48;6.45;;;16.10;99.90;;;;;;5094361;28;20024;-72
2022/07/22 04:46:24;;;;;;;10.85;5.82;;;16.00;99.90;;;;;;5075953;28;20055;-70
2022/07/22 04:48:50;;;;;;;14.07;6.22;;;16.30;99.90;;;;;;5078619;28;20036;-73
2022/07/22 04:51:16;;;;;;;17.88;6.65;;;16.50;99.90;;;;;;5098139;28;20092;-66
2022/07/22 04:53:45;;;;;;;15.63;7.00;;;16.50;99.90;;;;;;5075467;28;20040;-73
2022/07/22 04:56:12;;;;;;;17.33;6.22;;;16.50;99.90;;;;;;5075616;28;20020;-72
2022/07/22 04:58:37;;;;;;;11.32;6.43;;;16.40;99.90;;;;;;5075653;28;20028;-73
2022/07/22 05:01:03;;;;;;;14.90;5.53;;;16.60;99.90;;;;;;5075321;28;20115;-73
2022/07/22 05:03:29;;;;;;;17.75;5.80;;;16.80;99.90;;;;;;5075449;28;20034;-73
2022/07/22 05:05:56;;;;;;;14.23;6.57;;;16.90;99.90;;;;;;5075623;28;20035;-72
2022/07/22 05:08:30;;;;;;;20.42;6.85;;;17.20;99.90;;;;;;5075681;28;20024;-73
2022/07/22 05:10:56;;;;;;;13.40;5.97;;;17.20;99.90;;;;;;5075658;28;20024;-73
2022/07/22 05:13:21;;;;;;;22.13;7.47;;;17.30;99.90;;;;;;5074898;28;20028;-73
2022/07/22 05:15:47;;;;;;;16.23;6.00;;;17.40;99.90;;;;;;5075099;28;20024;-71
2022/07/22 05:18:15;;;;;;;14.82;5.93;;;17.50;99.90;;;;;;5075477;28;20454;-73
2022/07/22 05:20:40;;;;;;;12.50;5.97;;;17.10;99.90;;;;;;5075368;28;20027;-72
2022/07/22 05:23:07;;;;;;;16.10;6.10;;;16.90;99.90;;;;;;5075472;28;20060;-73
2022/07/22 05:25:34;;;;;;;12.60;5.53;;;16.80;99.90;;;;;;5075432;28;20028;-72
2022/07/22 05:28:00;;;;;;;15.48;6.63;;;17.20;99.90;;;;;;5074787;28;20486;-73
2022/07/22 05:30:39;;;;;;;17.05;6.18;;;17.60;99.90;;;;;;5075040;28;20468;-64
2022/07/22 05:33:06;;;;;;;13.80;6.22;;;17.80;99.90;;;;;;5075117;28;20020;-72
2022/07/22 05:35:50;;;;;;;15.95;6.50;;;17.80;99.90;;;;;;5093367;28;20078;-63
2022/07/22 05:38:17;;;;;;;20.98;6.15;;;17.50;99.90;;;;;;5075052;28;20026;-73
2022/07/22 05:40:43;;;;;;;12.50;5.75;;;17.90;99.90;;;;;;5093202;28;20111;-73
2022/07/22 05:43:10;;;;;;;14.95;6.03;;;17.60;99.90;;;;;;5074851;28;20039;-76
2022/07/22 05:45:36;;;;;;;11.80;5.68;;;17.30;99.90;;;;;;5068527;28;20572;-71
2022/07/22 05:48:02;;;;;;;16.67;6.40;;;17.10;99.90;;;;;;5055938;28;20115;-72
2022/07/22 05:50:31;;;;;;;18.00;6.32;;;16.90;99.90;;;;;;5060367;28;20469;-65
2022/07/22 05:52:57;;;;;;;15.00;6.28;;;16.90;99.90;;;;;;5076844;28;20109;-72
2022/07/22 05:55:23;;;;;;;14.93;6.28;;;17.30;99.90;;;;;;5057380;28;20032;-71
2022/07/22 05:57:52;;;;;;;12.00;5.55;;;17.70;99.90;;;;;;5058650;28;20491;-72
2022/07/22 06:00:18;;;;;;;12.45;5.75;;;17.60;99.90;;;;;;5054193;28;20048;-72
2022/07/22 06:02:44;;;;;;;21.33;6.38;;;17.70;99.90;;;;;;5053940;28;20032;-69
2022/07/22 06:05:15;;;;;;;16.48;5.50;;;17.90;99.90;;;;;;5065098;28;20025;-72
2022/07/22 06:07:41;;;;;;;15.02;5.07;;;17.70;99.90;;;;;;5063905;28;20070;-72
2022/07/22 06:10:09;;;;;;;11.95;5.25;;;17.50;99.90;;;;;;5055891;28;20122;-69
2022/07/22 06:12:36;;;;;;;17.10;6.57;;;17.30;99.90;;;;;;5053740;28;20025;-63
2022/07/22 06:15:03;;;;;;;20.48;6.68;;;17.20;99.90;;;;;;5053396;28;20028;-70
2022/07/22 06:17:29;;;;;;;18.70;5.35;;;17.00;99.90;;;;;;5049467;28;20069;-70
2022/07/22 06:19:55;;;;;;;21.58;6.47;;;16.90;99.90;;;;;;5059995;28;20021;-71
2022/07/22 06:22:21;;;;;;;16.98;5.82;;;17.00;99.90;;;;;;5055096;28;20516;-72
2022/07/22 06:24:47;;;;;;;13.85;5.00;;;17.10;99.90;;;;;;5071552;28;20036;-62
2022/07/22 06:27:14;;;;;;;17.38;5.03;;;17.10;99.90;;;;;;5056749;28;20106;-73
2022/07/22 06:29:40;;;;;;;15.70;4.47;;;17.20;99.90;;;;;;5063314;28;20030;-68
2022/07/22 06:32:07;;;;;;;18.60;5.18;;;17.50;99.90;;;;;;5073530;28;20105;-69
2022/07/22 06:34:34;;;;;;;21.02;3.58;;;18.20;99.90;;;;;;5073457;28;20035;-72
2022/07/22 06:37:03;;;;;;;10.32;4.47;;;18.30;99.90;;;;;;5090929;28;20439;-67
2022/07/22 06:39:29;;;;;;;15.20;4.70;;;18.30;99.90;;;;;;5060035;28;20024;-68
2022/07/22 06:42:16;;;;;;;22.70;5.78;;;18.60;99.90;;;;;;5073220;28;20127;-72
2022/07/22 06:45:05;;;;;;;17.65;4.97;;;18.90;99.90;;;;;;5087959;28;20107;-65
2022/07/22 06:47:50;;;;;;;14.80;3.28;;;19.00;99.90;;;;;;5075183;28;20412;-67
2022/07/22 06:50:17;;;;;;;15.50;3.00;;;19.10;99.90;;;;;;5053869;28;20025;-65
2022/07/22 06:52:43;;;;;;;14.90;2.97;;;19.20;99.90;;;;;;5056983;28;20035;-70
2022/07/22 06:55:10;;;;;;;11.32;2.83;;;19.40;99.90;;;;;;5066986;28;20508;-69
2022/07/22 06:57:41;;;;;;;;;;;19.60;99.90;;;;;;5064509;28;20434;-71
2022/07/22 07:00:08;;;;;;;18.27;2.80;;;19.50;99.90;;;;;;5057765;28;19912;-66
2022/07/22 07:02:47;;;;;;;8.95;2.10;;;19.50;99.90;;;;;;5066092;28;20028;-71
2022/07/22 07:05:13;;;;;;;12.88;1.92;;;19.30;99.90;;;;;;5066126;28;20434;-71
2022/07/22 07:07:39;;;;;;;6.88;2.15;;;19.30;99.90;;;;;;5083019;28;20063;-72
2022/07/22 07:10:05;;;;;;;9.82;2.30;;;19.50;99.90;;;;;;5058638;28;20028;-69
2022/07/22 07:12:48;;;;;;;12.82;2.40;;;20.10;99.90;;;;;;5058352;28;20029;-69
2022/07/22 07:15:24;;;;;;;9.30;2.28;;;20.20;99.90;;;;;;5050566;28;20086;-65
2022/07/22 07:17:52;;;;;;;13.43;2.67;;;20.00;99.90;;;;;;5069192;28;20013;-71
2022/07/22 07:20:18;;;;;;;9.23;2.08;;;20.00;99.90;;;;;;5060560;28;20464;-65
2022/07/22 07:22:44;;;;;;;8.65;2.30;;;20.40;99.90;;;;;;5041495;28;20120;-65
2022/07/22 07:25:12;;;;;;;11.55;2.38;;;20.70;99.90;;;;;;5056322;28;20028;-64
2022/07/22 07:27:38;;;;;;;9.48;2.47;;;21.10;99.90;;;;;;5061644;28;20077;-66
2022/07/22 07:30:11;;;;;;;20.30;3.47;;;20.50;99.90;;;;;;5072818;28;20088;-62
2022/07/22 07:32:38;;;;;;;9.55;2.55;;;20.60;99.90;;;;;;5076471;28;20464;-72
2022/07/22 07:35:06;;;;;;;9.23;2.00;;;20.70;99.90;;;;;;5076370;28;20039;-67
2022/07/22 07:37:32;;;;;;;15.70;2.40;;;20.20;99.90;;;;;;5076285;28;20031;-66
2022/07/22 07:39:59;;;;;;;10.40;2.10;;;20.10;99.90;;;;;;5076176;28;20118;-62
2022/07/22 07:42:26;;;;;;;8.13;2.10;;;20.40;99.90;;;;;;5075586;28;20150;-64
2022/07/22 07:44:52;;;;;;;12.05;2.30;;;20.50;99.90;;;;;;5076287;28;20017;-64
2022/07/22 07:47:20;;;;;;;16.63;3.30;;;20.70;99.90;;;;;;5068634;28;20436;-62
2022/07/22 07:49:48;;;;;;;13.02;2.40;;;20.50;99.90;;;;;;5056818;28;20031;-64
2022/07/22 07:52:15;;;;;;;11.13;2.45;;;20.70;99.90;;;;;;5066481;28;20388;-62
2022/07/22 07:54:41;;;;;;;8.15;1.83;;;20.80;99.90;;;;;;5067865;28;20040;-64
2022/07/22 07:57:10;;;;;;;7.15;1.92;;;20.90;99.90;;;;;;5065770;28;20024;-64
2022/07/22 07:59:37;;;;;;;13.27;2.35;;;21.40;99.90;;;;;;5068468;28;20051;-63
2022/07/22 08:02:04;;;;;;;9.10;1.83;;;21.40;99.90;;;;;;5063959;28;20078;-62
2022/07/22 08:04:32;;;;;;;14.55;3.65;;;21.60;99.90;;;;;;5061051;28;20024;-64
2022/07/22 08:06:58;;;;;;;9.73;2.40;;;21.50;99.90;;;;;;5039640;28;20016;-66
2022/07/22 08:09:24;;;;;;;12.00;2.40;;;20.80;99.90;;;;;;5073491;28;20054;-72
2022/07/22 08:11:50;;;;;;;9.35;1.80;;;20.70;99.90;;;;;;5055787;28;20486;-63
2022/07/22 08:14:36;;;;;;;9.13;2.10;;;20.60;99.90;;;;;;5055367;28;20113;-64
2022/07/22 08:17:22;;;;;;;9.88;2.70;;;20.60;99.90;;;;;;5072752;28;20072;-64
2022/07/22 08:19:48;;;;;;;12.63;2.30;;;20.70;99.90;;;;;;5055329;28;20041;-63
2022/07/22 08:22:13;;;;;;;8.63;2.15;;;20.90;99.90;;;;;;5057236;28;20027;-63
2022/07/22 08:24:41;;;;;;;8.35;2.17;;;21.00;99.90;;;;;;5060145;28;20031;-64
2022/07/22 08:27:11;;;;;;;7.50;1.95;;;21.30;99.90;;;;;;5055257;28;20515;-62
2022/07/22 08:29:37;;;;;;;11.10;1.90;;;21.40;99.90;;;;;;5065393;28;20434;-64
2022/07/22 08:32:03;;;;;;;10.95;2.35;;;22.10;99.90;;;;;;5093430;28;20099;-66
2022/07/22 08:34:29;;;;;;;10.50;2.33;;;21.80;99.90;;;;;;5075649;28;20066;-67
2022/07/22 08:36:55;;;;;;;10.68;2.03;;;21.50;99.90;;;;;;5075054;28;20051;-66
2022/07/22 08:39:22;;;;;;;7.70;1.77;;;21.50;99.90;;;;;;5074468;28;20494;-62
2022/07/22 08:41:48;;;;;;;8.35;2.15;;;21.50;99.90;;;;;;5074109;28;20354;-70
2022/07/22 08:44:14;;;;;;;8.13;1.73;;;21.10;99.90;;;;;;5074266;28;20112;-63
2022/07/22 08:46:43;;;;;;;9.85;2.80;;;21.60;99.90;;;;;;5094668;28;20533;-63
2022/07/22 08:49:17;;;;;;;8.80;2.08;;;21.90;99.90;;;;;;5092932;28;20484;-63
2022/07/22 08:51:51;;;;;;;8.50;2.33;;;21.90;99.90;;;;;;5075698;28;20031;-62
2022/07/22 08:54:20;;;;;;;8.15;2.00;;;22.30;99.90;;;;;;5075379;28;20044;-64
2022/07/22 08:56:51;;;;;;;4.97;1.85;;;22.40;99.90;;;;;;5075772;28;20106;-71
2022/07/22 08:59:17;;;;;;;10.63;1.92;;;22.30;99.90;;;;;;5075584;28;20024;-73
2022/07/22 09:02:09;;;;;;;9.60;2.28;;;22.10;99.90;;;;;;5093943;28;20027;-64
2022/07/22 09:05:01;;;;;;;5.90;1.77;;;22.20;99.90;;;;;;5075188;28;20024;-62
2022/07/22 09:07:29;;;;;;;7.32;2.28;;;21.70;99.90;;;;;;5075713;28;20109;-63
2022/07/22 09:09:58;;;;;;;8.95;2.40;;;21.30;99.90;;;;;;5059174;28;20106;-63
2022/07/22 09:12:54;;;;;;;9.45;2.35;;;21.00;99.90;;;;;;5093013;28;20055;-66
2022/07/22 09:15:46;;;;;;;4.40;1.33;;;21.40;99.90;;;;;;5073639;28;20051;-67
2022/07/22 09:18:43;;;;;;;;;;;21.70;99.90;;;;;;5093601;28;20085;-64
2022/07/22 09:21:30;;;;;;;8.48;1.75;;;21.80;99.90;;;;;;5067024;28;19920;-62
2022/07/22 09:24:24;;;;;;;8.48;1.90;;;21.70;99.90;;;;;;5054468;28;20050;-62
2022/07/22 09:26:54;;;;;;;10.82;1.88;;;21.80;99.90;;;;;;5054409;28;20091;-66
2022/07/22 09:29:49;;;;;;;8.80;2.22;;;22.00;99.90;;;;;;5074880;28;20039;-68
2022/07/22 09:32:17;;;;;;;11.65;2.35;;;22.20;99.90;;;;;;5073880;28;20020;-65
2022/07/22 09:35:04;;;;;;;8.13;2.33;;;22.50;99.90;;;;;;5092250;28;20048;-63
2022/07/22 09:37:51;;;;;;;8.30;2.20;;;22.50;99.90;;;;;;5074117;28;20039;-62
2022/07/22 09:40:22;;;;;;;10.15;2.47;;;23.20;99.90;;;;;;5092419;28;20107;-64
2022/07/22 09:42:51;;;;;;;11.82;2.20;;;23.40;99.90;;;;;;5072751;28;20016;-62
2022/07/22 09:45:18;;;;;;;7.32;2.25;;;22.70;99.90;;;;;;5073050;28;20035;-69
2022/07/22 09:47:46;;;;;;;7.70;2.13;;;22.80;99.90;;;;;;5074191;28;20071;-71
2022/07/22 09:50:33;;;;;;;8.02;2.05;;;22.70;99.90;;;;;;5044167;28;20123;-64
2022/07/22 09:53:22;;;;;;;9.73;2.60;;;23.00;99.90;;;;;;5080347;28;20069;-71
2022/07/22 09:56:12;;;;;;;10.90;2.60;;;23.50;99.90;;;;;;5078839;28;20040;-73
2022/07/22 09:58:38;;;;;;;10.32;2.72;;;23.10;99.90;;;;;;5092084;28;20110;-69
2022/07/22 10:01:11;;;;;;;10.20;2.40;;;22.30;99.90;;;;;;5073929;28;20077;-65
2022/07/22 10:03:40;;;;;;;12.27;3.30;;;22.10;99.90;;;;;;5073860;28;20047;-70
2022/07/22 10:06:07;;;;;;;12.23;2.80;;;23.10;99.90;;;;;;5071905;28;20538;-65
2022/07/22 10:08:36;;;;;;;10.50;2.47;;;23.50;99.90;;;;;;5092151;28;20032;-70
2022/07/22 10:11:05;;;;;;;8.23;2.60;;;23.90;99.90;;;;;;5072549;28;20054;-66
2022/07/22 10:13:32;;;;;;;10.52;2.70;;;24.20;99.90;;;;;;5073810;28;20128;-70
2022/07/22 10:16:00;;;;;;;10.07;3.08;;;23.80;99.90;;;;;;5074558;28;20403;-69
2022/07/22 10:18:30;;;;;;;11.63;2.85;;;23.60;99.90;;;;;;5074362;28;20430;-70
2022/07/22 10:21:06;;;;;;;13.52;3.22;;;23.40;99.90;;;;;;5073537;28;20540;-70
2022/07/22 10:23:32;;;;;;;12.05;2.60;;;23.20;99.90;;;;;;5093388;28;20024;-69
2022/07/22 10:26:01;;;;;;;15.68;3.17;;;23.10;99.90;;;;;;5091061;28;20033;-63
2022/07/22 10:28:31;;;;;;;7.32;2.70;;;23.30;99.90;;;;;;5049613;28;20021;-68
2022/07/22 10:31:15;;;;;;;8.68;3.33;;;23.60;99.90;;;;;;5068660;28;20038;-70
2022/07/22 10:33:43;;;;;;;8.50;3.30;;;24.00;99.40;;;;;;5096156;28;20031;-72
2022/07/22 10:36:09;;;;;;;11.50;3.35;;;23.90;99.40;;;;;;5096344;28;20023;-72
2022/07/22 10:38:37;;;;;;;10.00;2.53;;;24.40;99.50;;;;;;5066131;28;20375;-72
2022/07/22 10:41:06;;;;;;;7.03;2.75;;;23.20;99.90;;;;;;5080305;28;20033;-72
2022/07/22 10:43:45;;;;;;;12.57;2.88;;;23.50;99.90;;;;;;5077166;28;20483;-72
2022/07/22 10:46:12;;;;;;;9.85;2.85;;;24.00;99.90;;;;;;5074605;28;20024;-68
2022/07/22 10:48:37;;;;;;;7.22;2.55;;;24.10;99.10;;;;;;5072509;28;20103;-72
2022/07/22 10:51:10;;;;;;;18.02;3.20;;;24.10;99.70;;;;;;5077163;28;20050;-67
2022/07/22 10:53:56;;;;;;;10.82;2.88;;;23.80;99.00;;;;;;5075250;28;20043;-72
2022/07/22 10:56:35;;;;;;;9.70;2.95;;;23.80;99.90;;;;;;5073775;28;20074;-67
2022/07/22 10:59:12;;;;;;;9.75;3.05;;;24.10;99.90;;;;;;5074117;28;20035;-72
2022/07/22 11:01:45;;;;;;;9.15;2.97;;;24.00;99.90;;;;;;5079457;28;20090;-72
2022/07/22 11:04:23;;;;;;;12.10;2.90;;;25.20;99.00;;;;;;5077564;28;20052;-72
2022/07/22 11:06:51;;;;;;;8.13;3.10;;;25.40;96.90;;;;;;5075347;28;20095;-72
2022/07/22 11:09:18;;;;;;;5.82;2.47;;;25.20;96.70;;;;;;5074284;28;20119;-72
2022/07/22 11:11:52;;;;;;;13.05;2.70;;;25.10;97.00;;;;;;5076528;28;20020;-68
2022/07/22 11:14:32;;;;;;;13.02;2.78;;;25.50;97.20;;;;;;5070579;28;20032;-72
2022/07/22 11:17:04;;;;;;;11.50;4.05;;;24.70;98.20;;;;;;5058245;28;20056;-69
2022/07/22 11:19:37;;;;;;;9.80;4.28;;;25.30;98.20;;;;;;5074277;28;20032;-71
2022/07/22 11:22:12;;;;;;;12.45;3.75;;;24.80;97.70;;;;;;5084828;28;20060;-71
2022/07/22 11:24:39;;;;;;;8.25;2.90;;;24.80;98.20;;;;;;5077181;28;20115;-71
2022/07/22 11:27:13;;;;;;;12.27;3.10;;;25.30;97.70;;;;;;5075211;28;20078;-63
2022/07/22 11:29:42;;;;;;;8.07;2.83;;;25.70;95.40;;;;;;5085233;28;20025;-72
2022/07/22 11:32:09;;;;;;;6.75;2.70;;;25.80;96.30;;;;;;5094151;28;20111;-71
2022/07/22 11:34:37;;;;;;;6.15;3.08;;;25.50;96.10;;;;;;5094320;28;20032;-68
2022/07/22 11:37:03;;;;;;;11.00;2.78;;;25.30;97.10;;;;;;5092649;28;20032;-72
2022/07/22 11:39:30;;;;;;;9.43;3.22;;;25.10;96.70;;;;;;5094052;28;20036;-71
2022/07/22 11:42:00;;;;;;;8.48;2.97;;;25.60;96.90;;;;;;5095260;28;20032;-71
2022/07/22 11:44:31;;;;;;;9.60;3.75;;;26.00;97.10;;;;;;5094037;28;20024;-72
2022/07/22 11:47:00;;;;;;;8.05;3.38;;;25.70;96.10;;;;;;5094766;28;20510;-70
2022/07/22 11:49:33;;;;;;;11.77;4.10;;;25.40;96.10;;;;;;5095143;28;20093;-72
2022/07/22 11:52:00;;;;;;;9.95;3.65;;;25.30;96.40;;;;;;5094932;28;20114;-68
2022/07/22 11:54:26;;;;;;;13.68;3.25;;;25.50;97.00;;;;;;5095535;28;20036;-69
2022/07/22 11:56:51;;;;;;;9.57;3.22;;;25.90;95.70;;;;;;5076798;28;20472;-72
2022/07/22 11:59:17;;;;;;;5.30;2.42;;;25.70;95.80;;;;;;5095045;28;20060;-72
2022/07/22 12:01:45;;;;;;;7.40;2.50;;;26.00;95.60;;;;;;5094523;28;20107;-69
2022/07/22 12:04:16;;;;;;;11.30;3.83;;;26.40;95.10;;;;;;5095111;28;20376;-70
2022/07/22 12:06:44;;;;;;;9.63;3.47;;;26.10;95.70;;;;;;5094797;28;20016;-71
2022/07/22 12:09:21;;;;;;;8.45;3.53;;;25.10;96.10;;;;;;5094777;28;20060;-62
2022/07/22 12:11:50;;;;;;;9.70;3.40;;;25.60;95.80;;;;;;5066976;28;20053;-70
2022/07/22 12:14:21;;;;;;;14.55;3.67;;;25.10;96.10;;;;;;5094493;28;20119;-71
2022/07/22 12:16:57;;;;;;;9.00;3.40;;;25.20;96.50;;;;;;5094539;28;20388;-68
2022/07/22 12:19:26;;;;;;;7.90;2.80;;;25.30;97.00;;;;;;5094793;28;20071;-72
2022/07/22 12:21:55;;;;;;;8.68;3.42;;;26.10;96.50;;;;;;5090325;28;20024;-71
2022/07/22 12:24:53;;;;;;;11.55;3.92;;;25.60;95.70;;;;;;5086368;28;20029;-68
2022/07/22 12:27:20;;;;;;;15.02;3.92;;;25.40;97.30;;;;;;5089326;28;20039;-70
2022/07/22 12:29:47;;;;;;;8.85;3.15;;;25.60;96.60;;;;;;5094043;28;20028;-71
2022/07/22 12:32:22;;;;;;;16.80;3.88;;;26.10;95.90;;;;;;5094118;28;20061;-72
2022/07/22 12:35:00;;;;;;;6.80;3.10;;;25.80;96.30;;;;;;5094120;28;20039;-72
2022/07/22 12:37:30;;;;;;;8.38;3.05;;;26.20;96.40;;;;;;5094095;28;20043;-62
2022/07/22 12:40:04;;;;;;;9.15;2.88;;;26.90;95.50;;;;;;5093923;28;20492;-68
2022/07/22 12:42:37;;;;;;;7.20;3.13;;;27.20;94.60;;;;;;5094021;28;20506;-71
2022/07/22 12:45:06;;;;;;;11.30;3.42;;;27.60;94.90;;;;;;5093809;28;20016;-70
2022/07/22 12:47:45;;;;;;;9.18;3.85;;;27.10;94.90;;;;;;5093316;28;20032;-71
2022/07/22 12:50:39;;;;;;;10.93;3.20;;;27.00;95.20;;;;;;5094110;28;20032;-67
2022/07/22 12:53:13;;;;;;;11.35;4.30;;;26.50;96.00;;;;;;5089746;28;20151;-65